Atlas — SV6729 — position and weather

sailwx.info

Track history (hours):
 
Tides and Currents Weather Stations Pressure Air Temp Water Temp Dewpoint Dewpoint Depression Visibility Wind Speed Wind Dir Waves Ship Positions

Atlas

Last reported at 2017-Nov-19 11:19 UTC. Time now 2017-Nov-23 00:21 UTC.
Position N 37°57' E 023°36'.

Length 29 m; draft 5 m.

Type: Tug. MMSI: 239611000.

Date/timePositionNaut miles runAvg speedWind from/ knotsBaromVisibWave heightAir tempDewpointWater temp
2017-Nov-19 11:19N 37°57' E 023°36'2 7.8
2017-Nov-19 11:00N 37°58' E 023°33'0 0.4
2017-Nov-19 10:31N 37°57' E 023°34'1 2.2
2017-Nov-19 10:01N 37°57' E 023°35'1 1.6
2017-Nov-19 09:09N 37°57' E 023°37'1 6.2
2017-Nov-19 09:01N 37°57' E 023°35'0 0.8
2017-Nov-19 08:29N 37°57' E 023°35'1 0.4
2017-Nov-19 06:04N 37°57' E 023°37'0 3.5
2017-Nov-19 05:59N 37°58' E 023°36'1 2.0
2017-Nov-19 05:31N 37°57' E 023°36'0 0.8
2017-Nov-19 05:01N 37°57' E 023°35'1 1.3
2017-Nov-19 04:31N 37°57' E 023°36'0 0.0
2017-Nov-18 20:40N 37°57' E 023°37'1 6.0
2017-Nov-18 20:30N 37°57' E 023°35'1 1.4
2017-Nov-18 20:00N 37°57' E 023°36'0 0.0
2017-Nov-18 13:32N 37°57' E 023°36'0 1.0
2017-Nov-18 13:25N 37°58' E 023°36'0 0.2
2017-Nov-18 12:26N 37°57' E 023°36'1 2.2
2017-Nov-18 12:00N 37°57' E 023°35'1 1.4
2017-Nov-18 11:30N 37°57' E 023°35'2 2.0
2017-Nov-18 10:42N 37°57' E 023°37'1 4.0
2017-Nov-18 10:30N 37°57' E 023°36'4 7.5
2017-Nov-18 10:00N 38°00' E 023°33'2 4.5
2017-Nov-18 09:30N 38°02' E 023°36'2 4.7
2017-Nov-18 09:00N 38°00' E 023°33'2 4.8
2017-Nov-18 08:30N 37°58' E 023°33'0 0.0
2017-Nov-18 08:00N 37°58' E 023°33'0 0.0
2017-Nov-18 07:30N 37°58' E 023°33'2 4.4
2017-Nov-18 06:59N 37°58' E 023°36'1 1.5
2017-Nov-18 06:30N 37°57' E 023°36'1 0.1
2017-Nov-17 21:19N 37°57' E 023°37'1 2.0
2017-Nov-17 21:00N 37°57' E 023°36'1 0.1
2017-Nov-17 11:08N 37°57' E 023°37'0 0.0
2017-Nov-17 11:01N 37°57' E 023°37'0 0.0
2017-Nov-17 10:30N 37°57' E 023°37'0 0.0
2017-Nov-17 10:01N 37°57' E 023°37'0 0.0
2017-Nov-17 09:31N 37°57' E 023°37'0 0.0
2017-Nov-17 09:01N 37°57' E 023°37'0 0.0
2017-Nov-17 08:30N 37°57' E 023°37'1 1.3
2017-Nov-17 08:00N 37°57' E 023°36'1 1.7
2017-Nov-17 07:30N 37°57' E 023°36'1 1.2
2017-Nov-17 07:00N 37°57' E 023°36'0 0.3
2017-Nov-17 06:30N 37°57' E 023°36'1 1.2
2017-Nov-17 06:00N 37°57' E 023°35'1 1.6
2017-Nov-17 05:30N 37°57' E 023°36'1 1.0
2017-Nov-17 05:00N 37°57' E 023°37'0 0.0
2017-Nov-17 04:30N 37°57' E 023°37'0 0.0
2017-Nov-16 12:13N 37°57' E 023°37'0 0.0
2017-Nov-16 12:00N 37°57' E 023°37'0 0.6
2017-Nov-16 11:30N 37°57' E 023°36'0 0.6
2017-Nov-16 11:00N 37°57' E 023°36'0 0.9
2017-Nov-16 10:30N 37°57' E 023°37'2 4.7
2017-Nov-16 10:00N 37°57' E 023°34'4 7.9
2017-Nov-16 09:30N 38°01' E 023°35'1 1.5
2017-Nov-16 09:00N 38°02' E 023°36'0 0.3
2017-Nov-16 08:07N 38°01' E 023°36'0 0.0
2017-Nov-16 07:58N 38°01' E 023°36'0 0.0
2017-Nov-16 06:24N 38°01' E 023°36'0 0.0
2017-Nov-16 05:52N 38°01' E 023°36'0 0.0
2017-Nov-16 05:29N 38°01' E 023°36'0 0.0
2017-Nov-16 04:59N 38°01' E 023°36'0 0.0
2017-Nov-16 04:27N 38°01' E 023°36'0 0.0
2017-Nov-16 04:00N 38°01' E 023°36'0 0.0
2017-Nov-15 22:40N 38°01' E 023°36'0 0.0
2017-Nov-15 22:26N 38°01' E 023°36'0 0.0
2017-Nov-15 21:59N 38°01' E 023°36'0 0.0
2017-Nov-15 21:28N 38°01' E 023°36'0 0.0
2017-Nov-15 20:58N 38°01' E 023°36'0 0.0
2017-Nov-15 20:03N 38°01' E 023°36'0 0.0
2017-Nov-15 19:55N 38°01' E 023°36'0 0.0
2017-Nov-15 19:23N 38°01' E 023°36'0 0.0
2017-Nov-15 18:55N 38°01' E 023°36'0 0.6
2017-Nov-15 18:30N 38°02' E 023°36'0 0.8
2017-Nov-15 17:59N 38°01' E 023°35'2 2.5
2017-Nov-15 17:03N 37°60' E 023°33'0 9.7
2017-Nov-15 17:00N 37°59' E 023°33'3 6.2
2017-Nov-15 16:30N 37°57' E 023°36'0 0.7
2017-Nov-15 16:01N 37°57' E 023°37'0 0.0
2017-Nov-15 14:31N 37°57' E 023°37'0 0.0
2017-Nov-15 14:00N 37°57' E 023°37'0 0.0
2017-Nov-15 13:31N 37°57' E 023°37'0 0.0
2017-Nov-15 13:01N 37°57' E 023°37'0 0.0
2017-Nov-15 12:30N 37°57' E 023°37'0 0.0
2017-Nov-15 12:01N 37°57' E 023°37'0 0.0
2017-Nov-15 11:31N 37°57' E 023°37'0 0.0
2017-Nov-15 11:01N 37°57' E 023°37'0 0.0
2017-Nov-15 10:30N 37°57' E 023°37'0 0.0
2017-Nov-15 10:01N 37°57' E 023°37'0 0.0
2017-Nov-15 09:30N 37°57' E 023°37'0 0.0
2017-Nov-15 09:01N 37°57' E 023°37'0 0.0
2017-Nov-15 08:31N 37°57' E 023°37'0 0.0
2017-Nov-15 08:01N 37°57' E 023°37'0 0.0
2017-Nov-15 07:31N 37°57' E 023°37'1 1.2
2017-Nov-15 07:01N 37°57' E 023°36'0 0.4
2017-Nov-15 06:31N 37°57' E 023°36'0 1.0
2017-Nov-15 06:01N 37°57' E 023°37'0 0.0
2017-Nov-15 05:31N 37°57' E 023°37'0 0.0
2017-Nov-15 05:01N 37°57' E 023°37'0 0.0
2017-Nov-15 04:31N 37°57' E 023°37'0 0.0
2017-Nov-15 04:01N 37°57' E 023°37'0 0.0
2017-Nov-14 14:19N 37°57' E 023°37'0 0.0
2017-Nov-14 14:00N 37°57' E 023°37'0 0.0
2017-Nov-14 13:30N 37°57' E 023°37'0 0.0
2017-Nov-14 13:00N 37°57' E 023°37'1 1.3
2017-Nov-14 12:30N 37°57' E 023°36'1 2.1
2017-Nov-14 12:00N 37°57' E 023°37'1 1.3
2017-Nov-14 11:30N 37°57' E 023°37'0 0.5
2017-Nov-14 11:00N 37°58' E 023°36'1 1.7
2017-Nov-14 10:30N 37°57' E 023°36'1 1.4
2017-Nov-14 10:00N 37°57' E 023°37'0 0.0
2017-Nov-14 09:30N 37°57' E 023°37'0 0.0
2017-Nov-14 09:00N 37°57' E 023°37'0 0.0
2017-Nov-14 07:39N 37°57' E 023°37'0 2.0
2017-Nov-14 07:30N 37°57' E 023°36'1 1.6
2017-Nov-14 07:00N 37°57' E 023°35'0 0.8
2017-Nov-14 06:30N 37°57' E 023°36'0 0.0
2017-Nov-14 06:00N 37°57' E 023°36'0 0.0
2017-Nov-14 05:30N 37°57' E 023°36'0 1.0
2017-Nov-14 05:00N 37°57' E 023°36'1 1.3
2017-Nov-14 04:30N 37°57' E 023°37'0 0.0
2017-Nov-12 13:04N 37°57' E 023°37'0 0.0
2017-Nov-12 13:00N 37°57' E 023°37'1 2.7
2017-Nov-12 12:30N 37°57' E 023°35'0 0.9
2017-Nov-12 12:00N 37°57' E 023°35'1 2.1
2017-Nov-12 11:30N 37°57' E 023°36'0 0.9
2017-Nov-12 11:00N 37°57' E 023°37'0 0.0
2017-Nov-12 10:30N 37°57' E 023°37'0 0.0
2017-Nov-12 10:00N 37°57' E 023°37'0 0.0
2017-Nov-12 09:30N 37°57' E 023°37'0 0.1
2017-Nov-12 09:00N 37°57' E 023°37'1 2.6
2017-Nov-12 08:30N 37°57' E 023°35'1 1.6
2017-Nov-12 08:00N 37°57' E 023°36'0 0.5
2017-Nov-12 07:30N 37°57' E 023°36'1 1.1
2017-Nov-12 07:00N 37°57' E 023°36'0 0.0
2017-Nov-12 06:30N 37°57' E 023°36'0 0.0
2017-Nov-12 06:00N 37°57' E 023°36'0 0.0
2017-Nov-12 05:30N 37°57' E 023°36'0 0.8
2017-Nov-12 05:00N 37°57' E 023°36'0 0.3
2017-Nov-12 04:30N 37°57' E 023°36'0 0.7
2017-Nov-12 04:00N 37°57' E 023°37'0 0.0
2017-Nov-10 12:13N 37°57' E 023°37'0 1.7
2017-Nov-10 12:00N 37°58' E 023°36'1 1.5
2017-Nov-10 11:30N 37°57' E 023°36'0 0.8
2017-Nov-10 11:00N 37°57' E 023°36'0 0.9
2017-Nov-10 10:30N 37°57' E 023°36'0 0.6
2017-Nov-10 10:00N 37°57' E 023°37'0 0.1
2017-Nov-10 09:30N 37°57' E 023°37'0 0.0
2017-Nov-10 09:00N 37°57' E 023°37'0 0.0
2017-Nov-10 08:30N 37°57' E 023°37'1 2.2
2017-Nov-10 08:00N 37°57' E 023°35'1 2.3
2017-Nov-10 07:30N 37°57' E 023°37'0 0.1
2017-Nov-10 07:00N 37°57' E 023°37'0 0.0
2017-Nov-10 06:30N 37°57' E 023°37'1 1.4
2017-Nov-10 06:00N 37°57' E 023°36'1 1.5
2017-Nov-10 05:30N 37°58' E 023°36'1 1.4
2017-Nov-10 05:00N 37°57' E 023°36'1 1.2
2017-Nov-10 04:30N 37°57' E 023°37'0 0.0
2017-Nov-09 17:49N 37°57' E 023°37'0 0.4
2017-Nov-09 17:30N 37°57' E 023°36'0 0.1
2017-Nov-09 17:01N 37°57' E 023°36'1 2.6
2017-Nov-09 16:31N 37°57' E 023°35'2 4.3
2017-Nov-09 16:01N 37°58' E 023°33'2 4.7
2017-Nov-09 15:31N 38°01' E 023°33'1 2.5
2017-Nov-09 15:00N 38°02' E 023°34'1 2.7
2017-Nov-09 14:30N 38°02' E 023°32'0 0.5
2017-Nov-09 14:01N 38°02' E 023°32'0 0.0
2017-Nov-09 13:31N 38°02' E 023°32'0 0.0
2017-Nov-09 13:00N 38°02' E 023°32'0 0.0
2017-Nov-09 12:30N 38°02' E 023°32'0 0.0
2017-Nov-09 12:00N 38°02' E 023°32'0 0.0
2017-Nov-09 11:31N 38°02' E 023°32'  
Track history (hours):
 
Tides and Currents Weather Stations Pressure Air Temp Water Temp Dewpoint Dewpoint Depression Visibility Wind Speed Wind Dir Waves Ship Positions

Atlas

Last reported at 2017-Nov-19 11:19 UTC. Time now 2017-Nov-23 00:21 UTC.
Position N 37°57' E 023°36'.

Length 29 m; draft 5 m.

Type: Tug. MMSI: 239611000.

Date/timePositionNaut miles runAvg speedWind from/ knotsBaromVisibWave heightAir tempDewpointWater temp
2017-Nov-19 11:19N 37°57' E 023°36'2 7.8
2017-Nov-19 11:00N 37°58' E 023°33'0 0.4
2017-Nov-19 10:31N 37°57' E 023°34'1 2.2
2017-Nov-19 10:01N 37°57' E 023°35'1 1.6
2017-Nov-19 09:09N 37°57' E 023°37'1 6.2
2017-Nov-19 09:01N 37°57' E 023°35'0 0.8
2017-Nov-19 08:29N 37°57' E 023°35'1 0.4
2017-Nov-19 06:04N 37°57' E 023°37'0 3.5
2017-Nov-19 05:59N 37°58' E 023°36'1 2.0
2017-Nov-19 05:31N 37°57' E 023°36'0 0.8
2017-Nov-19 05:01N 37°57' E 023°35'1 1.3
2017-Nov-19 04:31N 37°57' E 023°36'0 0.0
2017-Nov-18 20:40N 37°57' E 023°37'1 6.0
2017-Nov-18 20:30N 37°57' E 023°35'1 1.4
2017-Nov-18 20:00N 37°57' E 023°36'0 0.0
2017-Nov-18 13:32N 37°57' E 023°36'0 1.0
2017-Nov-18 13:25N 37°58' E 023°36'0 0.2
2017-Nov-18 12:26N 37°57' E 023°36'1 2.2
2017-Nov-18 12:00N 37°57' E 023°35'1 1.4
2017-Nov-18 11:30N 37°57' E 023°35'2 2.0
2017-Nov-18 10:42N 37°57' E 023°37'1 4.0
2017-Nov-18 10:30N 37°57' E 023°36'4 7.5
2017-Nov-18 10:00N 38°00' E 023°33'2 4.5
2017-Nov-18 09:30N 38°02' E 023°36'2 4.7
2017-Nov-18 09:00N 38°00' E 023°33'2 4.8
2017-Nov-18 08:30N 37°58' E 023°33'0 0.0
2017-Nov-18 08:00N 37°58' E 023°33'0 0.0
2017-Nov-18 07:30N 37°58' E 023°33'2 4.4
2017-Nov-18 06:59N 37°58' E 023°36'1 1.5
2017-Nov-18 06:30N 37°57' E 023°36'1 0.1
2017-Nov-17 21:19N 37°57' E 023°37'1 2.0
2017-Nov-17 21:00N 37°57' E 023°36'1 0.1
2017-Nov-17 11:08N 37°57' E 023°37'0 0.0
2017-Nov-17 11:01N 37°57' E 023°37'0 0.0
2017-Nov-17 10:30N 37°57' E 023°37'0 0.0
2017-Nov-17 10:01N 37°57' E 023°37'0 0.0
2017-Nov-17 09:31N 37°57' E 023°37'0 0.0
2017-Nov-17 09:01N 37°57' E 023°37'0 0.0
2017-Nov-17 08:30N 37°57' E 023°37'1 1.3
2017-Nov-17 08:00N 37°57' E 023°36'1 1.7
2017-Nov-17 07:30N 37°57' E 023°36'1 1.2
2017-Nov-17 07:00N 37°57' E 023°36'0 0.3
2017-Nov-17 06:30N 37°57' E 023°36'1 1.2
2017-Nov-17 06:00N 37°57' E 023°35'1 1.6
2017-Nov-17 05:30N 37°57' E 023°36'1 1.0
2017-Nov-17 05:00N 37°57' E 023°37'0 0.0
2017-Nov-17 04:30N 37°57' E 023°37'0 0.0
2017-Nov-16 12:13N 37°57' E 023°37'0 0.0
2017-Nov-16 12:00N 37°57' E 023°37'0 0.6
2017-Nov-16 11:30N 37°57' E 023°36'0 0.6
2017-Nov-16 11:00N 37°57' E 023°36'0 0.9
2017-Nov-16 10:30N 37°57' E 023°37'2 4.7
2017-Nov-16 10:00N 37°57' E 023°34'4 7.9
2017-Nov-16 09:30N 38°01' E 023°35'1 1.5
2017-Nov-16 09:00N 38°02' E 023°36'0 0.3
2017-Nov-16 08:07N 38°01' E 023°36'0 0.0
2017-Nov-16 07:58N 38°01' E 023°36'0 0.0
2017-Nov-16 06:24N 38°01' E 023°36'0 0.0
2017-Nov-16 05:52N 38°01' E 023°36'0 0.0
2017-Nov-16 05:29N 38°01' E 023°36'0 0.0
2017-Nov-16 04:59N 38°01' E 023°36'0 0.0
2017-Nov-16 04:27N 38°01' E 023°36'0 0.0
2017-Nov-16 04:00N 38°01' E 023°36'0 0.0
2017-Nov-15 22:40N 38°01' E 023°36'0 0.0
2017-Nov-15 22:26N 38°01' E 023°36'0 0.0
2017-Nov-15 21:59N 38°01' E 023°36'0 0.0
2017-Nov-15 21:28N 38°01' E 023°36'0 0.0
2017-Nov-15 20:58N 38°01' E 023°36'0 0.0
2017-Nov-15 20:03N 38°01' E 023°36'0 0.0
2017-Nov-15 19:55N 38°01' E 023°36'0 0.0
2017-Nov-15 19:23N 38°01' E 023°36'0 0.0
2017-Nov-15 18:55N 38°01' E 023°36'0 0.6
2017-Nov-15 18:30N 38°02' E 023°36'0 0.8
2017-Nov-15 17:59N 38°01' E 023°35'2 2.5
2017-Nov-15 17:03N 37°60' E 023°33'0 9.7
2017-Nov-15 17:00N 37°59' E 023°33'3 6.2
2017-Nov-15 16:30N 37°57' E 023°36'0 0.7
2017-Nov-15 16:01N 37°57' E 023°37'0 0.0
2017-Nov-15 14:31N 37°57' E 023°37'0 0.0
2017-Nov-15 14:00N 37°57' E 023°37'0 0.0
2017-Nov-15 13:31N 37°57' E 023°37'0 0.0
2017-Nov-15 13:01N 37°57' E 023°37'0 0.0
2017-Nov-15 12:30N 37°57' E 023°37'0 0.0
2017-Nov-15 12:01N 37°57' E 023°37'0 0.0
2017-Nov-15 11:31N 37°57' E 023°37'0 0.0
2017-Nov-15 11:01N 37°57' E 023°37'0 0.0
2017-Nov-15 10:30N 37°57' E 023°37'0 0.0
2017-Nov-15 10:01N 37°57' E 023°37'0 0.0
2017-Nov-15 09:30N 37°57' E 023°37'0 0.0
2017-Nov-15 09:01N 37°57' E 023°37'0 0.0
2017-Nov-15 08:31N 37°57' E 023°37'0 0.0
2017-Nov-15 08:01N 37°57' E 023°37'0 0.0
2017-Nov-15 07:31N 37°57' E 023°37'1 1.2
2017-Nov-15 07:01N 37°57' E 023°36'0 0.4
2017-Nov-15 06:31N 37°57' E 023°36'0 1.0
2017-Nov-15 06:01N 37°57' E 023°37'0 0.0
2017-Nov-15 05:31N 37°57' E 023°37'0 0.0
2017-Nov-15 05:01N 37°57' E 023°37'0 0.0
2017-Nov-15 04:31N 37°57' E 023°37'0 0.0
2017-Nov-15 04:01N 37°57' E 023°37'0 0.0
2017-Nov-14 14:19N 37°57' E 023°37'0 0.0
2017-Nov-14 14:00N 37°57' E 023°37'0 0.0
2017-Nov-14 13:30N 37°57' E 023°37'0 0.0
2017-Nov-14 13:00N 37°57' E 023°37'1 1.3
2017-Nov-14 12:30N 37°57' E 023°36'1 2.1
2017-Nov-14 12:00N 37°57' E 023°37'1 1.3
2017-Nov-14 11:30N 37°57' E 023°37'0 0.5
2017-Nov-14 11:00N 37°58' E 023°36'1 1.7
2017-Nov-14 10:30N 37°57' E 023°36'1 1.4
2017-Nov-14 10:00N 37°57' E 023°37'0 0.0
2017-Nov-14 09:30N 37°57' E 023°37'0 0.0
2017-Nov-14 09:00N 37°57' E 023°37'0 0.0
2017-Nov-14 07:39N 37°57' E 023°37'0 2.0
2017-Nov-14 07:30N 37°57' E 023°36'1 1.6
2017-Nov-14 07:00N 37°57' E 023°35'0 0.8
2017-Nov-14 06:30N 37°57' E 023°36'0 0.0
2017-Nov-14 06:00N 37°57' E 023°36'0 0.0
2017-Nov-14 05:30N 37°57' E 023°36'0 1.0
2017-Nov-14 05:00N 37°57' E 023°36'1 1.3
2017-Nov-14 04:30N 37°57' E 023°37'0 0.0
2017-Nov-12 13:04N 37°57' E 023°37'0 0.0
2017-Nov-12 13:00N 37°57' E 023°37'1 2.7
2017-Nov-12 12:30N 37°57' E 023°35'0 0.9
2017-Nov-12 12:00N 37°57' E 023°35'1 2.1
2017-Nov-12 11:30N 37°57' E 023°36'0 0.9
2017-Nov-12 11:00N 37°57' E 023°37'0 0.0
2017-Nov-12 10:30N 37°57' E 023°37'0 0.0
2017-Nov-12 10:00N 37°57' E 023°37'0 0.0
2017-Nov-12 09:30N 37°57' E 023°37'0 0.1
2017-Nov-12 09:00N 37°57' E 023°37'1 2.6
2017-Nov-12 08:30N 37°57' E 023°35'1 1.6
2017-Nov-12 08:00N 37°57' E 023°36'0 0.5
2017-Nov-12 07:30N 37°57' E 023°36'1 1.1
2017-Nov-12 07:00N 37°57' E 023°36'0 0.0
2017-Nov-12 06:30N 37°57' E 023°36'0 0.0
2017-Nov-12 06:00N 37°57' E 023°36'0 0.0
2017-Nov-12 05:30N 37°57' E 023°36'0 0.8
2017-Nov-12 05:00N 37°57' E 023°36'0 0.3
2017-Nov-12 04:30N 37°57' E 023°36'0 0.7
2017-Nov-12 04:00N 37°57' E 023°37'0 0.0
2017-Nov-10 12:13N 37°57' E 023°37'0 1.7
2017-Nov-10 12:00N 37°58' E 023°36'1 1.5
2017-Nov-10 11:30N 37°57' E 023°36'0 0.8
2017-Nov-10 11:00N 37°57' E 023°36'0 0.9
2017-Nov-10 10:30N 37°57' E 023°36'0 0.6
2017-Nov-10 10:00N 37°57' E 023°37'0 0.1
2017-Nov-10 09:30N 37°57' E 023°37'0 0.0
2017-Nov-10 09:00N 37°57' E 023°37'0 0.0
2017-Nov-10 08:30N 37°57' E 023°37'1 2.2
2017-Nov-10 08:00N 37°57' E 023°35'1 2.3
2017-Nov-10 07:30N 37°57' E 023°37'0 0.1
2017-Nov-10 07:00N 37°57' E 023°37'0 0.0
2017-Nov-10 06:30N 37°57' E 023°37'1 1.4
2017-Nov-10 06:00N 37°57' E 023°36'1 1.5
2017-Nov-10 05:30N 37°58' E 023°36'1 1.4
2017-Nov-10 05:00N 37°57' E 023°36'1 1.2
2017-Nov-10 04:30N 37°57' E 023°37'0 0.0
2017-Nov-09 17:49N 37°57' E 023°37'0 0.4
2017-Nov-09 17:30N 37°57' E 023°36'0 0.1
2017-Nov-09 17:01N 37°57' E 023°36'1 2.6
2017-Nov-09 16:31N 37°57' E 023°35'2 4.3
2017-Nov-09 16:01N 37°58' E 023°33'2 4.7
2017-Nov-09 15:31N 38°01' E 023°33'1 2.5
2017-Nov-09 15:00N 38°02' E 023°34'1 2.7
2017-Nov-09 14:30N 38°02' E 023°32'0 0.5
2017-Nov-09 14:01N 38°02' E 023°32'0 0.0
2017-Nov-09 13:31N 38°02' E 023°32'0 0.0
2017-Nov-09 13:00N 38°02' E 023°32'0 0.0
2017-Nov-09 12:30N 38°02' E 023°32'0 0.0
2017-Nov-09 12:00N 38°02' E 023°32'0 0.0
2017-Nov-09 11:31N 38°02' E 023°32'  

Dump ship's entire track history